Time;durP1;ratioP1;P1;durP2;ratioP2;P2;SDS_P1;SDS_P2;PMS_P1;PMS_P2;Temp;Humidity;BMP_temperature;BMP_pressure;BME280_temperature;BME280_humidity;BME280_pressure;Samples;Min_cycle;Max_cycle;Signal;HPM_P1;HPM_P2
2021/10/13 00:02:07;;;;;;;11.23;9.77;;;;;;;7.31;70.19;100100.28;4914039;28;99762;-79
2021/10/13 00:04:32;;;;;;;11.65;9.73;;;;;;;7.23;70.16;100089.16;4915024;28;96652;-80
2021/10/13 00:06:58;;;;;;;10.30;9.30;;;;;;;7.21;70.18;100090.94;4910154;28;96581;-79
2021/10/13 00:09:24;;;;;;;9.85;8.95;;;;;;;7.18;70.51;100094.47;4911971;28;100239;-80
2021/10/13 00:11:49;;;;;;;10.65;9.57;;;;;;;7.21;70.66;100101.38;4908819;28;100962;-80
2021/10/13 00:14:15;;;;;;;10.15;9.15;;;;;;;7.18;70.77;100097.06;4910894;28;97090;-79
2021/10/13 00:16:40;;;;;;;10.30;9.30;;;;;;;7.27;70.64;100106.44;4922095;28;97027;-79
2021/10/13 00:19:06;;;;;;;10.60;9.43;;;;;;;7.21;70.88;100103.97;4921375;28;97691;-79
2021/10/13 00:21:32;;;;;;;10.68;9.68;;;;;;;7.23;70.83;100100.44;4919954;28;101153;-79
2021/10/13 00:23:58;;;;;;;9.52;8.75;;;;;;;7.29;70.90;100107.28;4922657;28;96661;-79
2021/10/13 00:26:23;;;;;;;10.23;9.33;;;;;;;7.31;70.69;100099.41;4908818;28;96958;-79
2021/10/13 00:28:49;;;;;;;9.95;9.00;;;;;;;7.34;70.73;100104.56;4927037;28;101339;-79
2021/10/13 00:31:14;;;;;;;10.07;9.07;;;;;;;7.32;71.00;100106.34;4909701;28;101500;-79
2021/10/13 00:33:40;;;;;;;9.88;8.93;;;;;;;7.28;71.29;100102.97;4942108;28;96739;-79
2021/10/13 00:36:06;;;;;;;15.90;10.05;;;;;;;7.26;71.60;100107.34;4927576;28;96726;-80
2021/10/13 00:38:32;;;;;;;11.63;9.63;;;;;;;7.22;71.69;100108.34;4922881;28;100243;-80
2021/10/13 00:40:57;;;;;;;10.13;9.25;;;;;;;7.25;71.68;100108.25;4944155;28;96988;-79
2021/10/13 00:43:23;;;;;;;9.38;8.52;;;;;;;7.26;71.39;100107.34;4941604;28;96750;-80
2021/10/13 00:45:51;;;;;;;9.75;8.85;;;;;;;7.28;71.88;100102.09;4928699;28;96900;-80
2021/10/13 00:48:17;;;;;;;9.77;8.88;;;;;;;7.34;71.55;100108.03;4938625;28;100165;-79
2021/10/13 00:50:43;;;;;;;9.82;8.90;;;;;;;7.36;70.84;100106.25;4901478;28;101217;-79
2021/10/13 00:53:09;;;;;;;9.30;8.40;;;;;;;7.33;71.10;100108.94;4918605;28;97027;-79
2021/10/13 00:55:35;;;;;;;9.32;8.43;;;;;;;7.33;71.45;100114.16;4929193;28;96998;-79
2021/10/13 00:58:00;;;;;;;10.13;9.13;;;;;;;7.26;71.60;100113.41;4902698;28;101548;-79
2021/10/13 01:00:26;;;;;;;9.70;8.90;;;;;;;7.26;71.33;100108.19;4925214;28;97382;-79
2021/10/13 01:03:03;;;;;;;11.43;8.88;;;;;;;7.24;71.59;100115.22;4925107;28;97223;-79
2021/10/13 01:05:37;;;;;;;9.65;8.70;;;;;;;7.22;71.59;100116.16;4922094;28;96659;-79
2021/10/13 01:08:08;;;;;;;9.30;8.50;;;;;;;7.22;71.56;100116.16;4912789;28;100650;-79
2021/10/13 01:10:49;;;;;;;9.80;8.90;;;;;;;7.21;71.27;100120.53;4925224;28;97883;-79
2021/10/13 01:13:53;;;;;;;10.85;9.40;;;;;;;7.17;71.37;100128.47;4935193;28;98135;-80
2021/10/13 01:16:54;;;;;;;10.75;9.32;;;;;;;7.10;71.52;100129.47;4938632;28;97302;-79
2021/10/13 01:19:25;;;;;;;10.20;9.20;;;;;;;7.01;71.14;100136.66;4898227;28;101665;-79
2021/10/13 01:22:21;;;;;;;9.38;8.57;;;;;;;7.09;70.94;100119.94;4917408;28;101254;-79
2021/10/13 01:24:53;;;;;;;10.10;9.10;;;;;;;7.06;71.32;100122.63;4931809;28;96846;-79
2021/10/13 01:27:34;;;;;;;10.45;9.40;;;;;;;7.06;71.42;100128.69;4931982;28;96989;-79
2021/10/13 01:30:01;;;;;;;11.65;8.93;;;;;;;6.97;70.46;100127.16;4896630;28;100300;-79
2021/10/13 01:32:28;;;;;;;12.10;8.85;;;;;;;6.86;71.11;100129.13;4921456;28;101467;-80
2021/10/13 01:35:03;;;;;;;11.35;8.57;;;;;;;6.84;70.91;100132.69;4915549;28;97238;-80
2021/10/13 01:37:31;;;;;;;9.32;8.50;;;;;;;6.84;71.10;100128.31;4887052;28;97722;-80
2021/10/13 01:39:58;;;;;;;9.77;8.77;;;;;;;6.77;71.79;100135.41;4938240;28;100309;-80
2021/10/13 01:42:25;;;;;;;9.67;8.80;;;;;;;6.82;71.63;100144.91;4937638;28;101737;-80
2021/10/13 01:44:59;;;;;;;9.97;8.90;;;;;;;6.79;71.57;100140.59;4926642;28;96645;-79
2021/10/13 01:47:25;;;;;;;10.30;9.17;;;;;;;6.76;71.58;100138.91;4917937;28;96996;-80
2021/10/13 01:49:54;;;;;;;12.77;9.02;;;;;;;6.71;71.47;100138.16;4935573;28;101385;-80
2021/10/13 01:52:20;;;;;;;9.57;8.68;;;;;;;6.65;71.57;100140.03;4947305;28;97271;-80
2021/10/13 01:54:47;;;;;;;9.73;8.80;;;;;;;6.59;71.97;100141.03;4912663;28;96639;-79
2021/10/13 01:57:13;;;;;;;9.90;9.00;;;;;;;6.64;71.43;100139.19;4908938;28;96678;-80
2021/10/13 01:59:41;;;;;;;9.33;8.43;;;;;;;6.60;71.58;100136.66;4906125;28;100401;-79
2021/10/13 02:02:08;;;;;;;13.13;9.00;;;;;;;6.53;71.62;100139.38;4921957;28;98491;-80
2021/10/13 02:04:39;;;;;;;10.33;9.43;;;;;;;6.52;71.15;100142.91;4910682;28;97768;-80
2021/10/13 02:07:05;;;;;;;10.70;9.63;;;;;;;6.46;71.75;100137.81;4922566;28;97173;-80
2021/10/13 02:09:31;;;;;;;10.10;9.23;;;;;;;6.48;71.35;100140.38;4904231;28;100566;-80
2021/10/13 02:11:58;;;;;;;9.53;8.67;;;;;;;6.38;71.78;100144.06;4910110;28;101357;-80
2021/10/13 02:14:25;;;;;;;10.87;9.63;;;;;;;6.32;71.97;100142.44;4911547;28;97276;-79
2021/10/13 02:16:53;;;;;;;9.37;8.50;;;;;;;6.37;71.45;100145.81;4933666;28;97220;-80
2021/10/13 02:19:20;;;;;;;9.83;8.83;;;;;;;6.33;71.69;100151.97;4907701;28;101151;-80
2021/10/13 02:21:50;;;;;;;9.67;8.83;;;;;;;6.35;71.49;100151.06;4905356;28;101286;-81
2021/10/13 02:24:24;;;;;;;9.97;8.90;;;;;;;6.35;71.52;100151.06;4930365;28;96744;-79
2021/10/13 02:26:54;;;;;;;14.00;9.57;;;;;;;6.37;71.36;100155.38;4923989;28;97283;-80
2021/10/13 02:29:21;;;;;;;14.97;9.10;;;;;;;6.32;71.05;100164.16;4905861;28;101549;-79
2021/10/13 02:31:47;;;;;;;8.57;7.87;;;;;;;6.32;70.96;100171.13;4908062;28;101079;-79
2021/10/13 02:34:14;;;;;;;9.17;8.43;;;;;;;6.21;71.98;100170.44;4907974;28;96609;-79
2021/10/13 02:36:40;;;;;;;9.43;8.53;;;;;;;6.18;71.78;100173.97;4881503;28;96979;-80
2021/10/13 02:39:06;;;;;;;11.10;8.23;;;;;;;6.18;71.96;100167.91;4862414;28;101813;-79
2021/10/13 02:41:32;;;;;;;9.93;8.93;;;;;;;6.14;71.86;100174.94;4871727;28;101884;-79
2021/10/13 02:43:58;;;;;;;10.67;9.57;;;;;;;6.07;72.36;100168.94;4896715;28;97067;-80
2021/10/13 02:46:49;;;;;;;10.53;9.53;;;;;;;6.05;71.96;100180.28;4887441;28;99638;-80
2021/10/13 02:49:18;;;;;;;11.60;9.63;;;;;;;6.02;71.85;100183.81;4900698;28;98440;-80
2021/10/13 02:51:51;;;;;;;9.60;8.70;;;;;;;6.01;72.20;100176.88;4888476;28;98146;-79
2021/10/13 02:54:29;;;;;;;10.83;9.33;;;;;;;6.00;71.96;100192.56;4884702;28;96624;-79
2021/10/13 02:56:57;;;;;;;10.13;9.13;;;;;;;5.92;72.73;100197.84;4871907;28;96846;-79
2021/10/13 02:59:32;;;;;;;9.97;8.97;;;;;;;5.92;72.22;100207.41;4870976;28;101809;-79
2021/10/13 03:02:04;;;;;;;11.13;9.10;;;;;;;5.92;72.46;100210.03;4883331;28;97349;-79
2021/10/13 03:04:35;;;;;;;10.10;9.07;;;;;;;5.88;72.61;100204.88;4888389;28;96747;-80
2021/10/13 03:07:14;;;;;;;9.40;8.70;;;;;;;5.87;72.62;100205.72;4877686;28;97045;-80
2021/10/13 03:09:41;;;;;;;10.87;8.40;;;;;;;5.86;72.79;100203.16;4882067;28;101015;-79
2021/10/13 03:12:09;;;;;;;9.97;9.07;;;;;;;5.92;72.43;100204.81;4866270;28;100884;-79
2021/10/13 03:14:37;;;;;;;10.63;8.70;;;;;;;5.97;72.06;100211.69;4872120;28;97082;-79
2021/10/13 03:17:03;;;;;;;8.70;7.90;;;;;;;5.93;72.02;100209.13;4868762;28;97171;-79
2021/10/13 03:19:32;;;;;;;9.47;8.57;;;;;;;5.82;72.12;100210.19;4878903;28;101644;-79
2021/10/13 03:22:00;;;;;;;10.07;9.00;;;;;;;5.88;72.18;100217.91;4903477;28;97951;-79
2021/10/13 03:24:26;;;;;;;10.60;9.10;;;;;;;5.88;71.62;100220.50;4892945;28;96805;-79
2021/10/13 03:26:51;;;;;;;12.20;8.77;;;;;;;5.82;72.06;100214.53;4882928;28;96929;-81
2021/10/13 03:29:17;;;;;;;9.30;8.50;;;;;;;5.74;72.29;100214.66;4878597;28;97504;-80
2021/10/13 03:31:44;;;;;;;9.60;8.60;;;;;;;5.82;72.18;100224.97;4904688;28;96736;-80
2021/10/13 03:34:09;;;;;;;9.80;8.90;;;;;;;5.79;71.89;100225.88;4891227;28;97077;-80
2021/10/13 03:36:40;;;;;;;9.17;8.33;;;;;;;5.81;72.04;100237.09;4862300;28;97100;-80
2021/10/13 03:39:06;;;;;;;9.97;8.60;;;;;;;5.81;71.79;100236.25;4884649;28;97532;-79
2021/10/13 03:41:32;;;;;;;9.17;8.07;;;;;;;5.70;72.49;100239.00;4883100;28;101389;-79
2021/10/13 03:43:57;;;;;;;9.57;8.50;;;;;;;5.73;72.55;100246.81;4871749;28;97216;-79
2021/10/13 03:46:23;;;;;;;9.53;8.53;;;;;;;5.76;72.15;100245.88;4872685;28;97368;-80
2021/10/13 03:48:51;;;;;;;9.50;8.60;;;;;;;5.73;72.36;100245.91;4884654;28;100901;-80
2021/10/13 03:51:20;;;;;;;13.40;9.33;;;;;;;5.68;72.57;100248.59;4869032;28;100680;-79
2021/10/13 03:53:46;;;;;;;9.40;8.60;;;;;;;5.74;72.29;100250.25;4868415;28;97318;-80
2021/10/13 03:56:12;;;;;;;9.67;8.77;;;;;;;5.74;72.46;100247.66;4888701;28;96610;-80
2021/10/13 03:58:38;;;;;;;9.20;8.33;;;;;;;5.70;72.29;100241.59;4878312;28;97705;-79
2021/10/13 04:01:03;;;;;;;9.90;9.00;;;;;;;5.78;72.15;100251.91;4868545;28;102163;-80
2021/10/13 04:03:29;;;;;;;8.60;8.00;;;;;;;5.82;71.95;100261.44;4874377;28;96686;-79
2021/10/13 04:05:55;;;;;;;9.83;7.67;;;;;;;5.75;72.07;100263.25;4883179;28;97252;-80
2021/10/13 04:08:21;;;;;;;9.40;8.70;;;;;;;5.76;72.58;100277.13;4873899;28;101616;-80
2021/10/13 04:10:46;;;;;;;8.87;7.97;;;;;;;5.74;72.42;100277.16;4875918;28;100764;-80
2021/10/13 04:13:12;;;;;;;9.63;8.63;;;;;;;5.77;72.66;100284.06;4879978;28;96995;-80
2021/10/13 04:15:37;;;;;;;9.33;8.53;;;;;;;5.83;72.61;100276.16;4877612;28;97175;-80
2021/10/13 04:18:04;;;;;;;9.17;8.30;;;;;;;5.78;72.87;100281.44;4891629;28;97636;-81
2021/10/13 04:20:30;;;;;;;11.50;9.23;;;;;;;5.71;73.09;100285.03;4893325;28;100523;-80
2021/10/13 04:22:55;;;;;;;10.77;9.07;;;;;;;5.79;73.28;100293.59;4886881;28;97188;-80
2021/10/13 04:25:21;;;;;;;10.43;9.53;;;;;;;5.87;72.87;100280.44;4875213;28;97129;-80
2021/10/13 04:27:46;;;;;;;9.30;8.60;;;;;;;5.91;72.39;100287.34;4888678;28;101279;-80
2021/10/13 04:30:12;;;;;;;9.40;8.30;;;;;;;5.96;72.98;100290.72;4870936;28;101419;-80
2021/10/13 04:32:38;;;;;;;10.03;9.23;;;;;;;5.95;72.82;100288.16;4922252;28;97000;-80
2021/10/13 04:35:04;;;;;;;10.20;9.20;;;;;;;5.98;72.71;100283.75;4893677;28;97574;-80
2021/10/13 04:37:29;;;;;;;9.67;8.90;;;;;;;5.98;72.83;100283.75;4903028;28;97929;-79
2021/10/13 04:39:55;;;;;;;10.00;8.73;;;;;;;5.97;73.22;100281.19;4899592;28;97528;-79
2021/10/13 04:42:20;;;;;;;9.60;8.80;;;;;;;6.05;72.99;100285.41;4908235;28;96746;-80
2021/10/13 04:44:46;;;;;;;10.43;9.33;;;;;;;6.13;73.74;100291.31;4885621;28;96694;-80
2021/10/13 04:47:11;;;;;;;9.63;8.63;;;;;;;6.17;73.75;100292.16;4895163;28;99451;-79
2021/10/13 04:49:37;;;;;;;11.77;9.70;;;;;;;6.19;73.87;100286.91;4880634;28;101182;-79
2021/10/13 04:52:03;;;;;;;13.50;9.63;;;;;;;6.23;73.80;100294.66;4885781;28;96794;-80
2021/10/13 04:54:28;;;;;;;30.27;16.93;;;;;;;6.27;73.70;100291.09;4874615;28;96964;-80
2021/10/13 04:56:54;;;;;;;12.23;11.07;;;;;;;6.33;73.51;100298.81;4899033;28;99405;-81
2021/10/13 04:59:19;;;;;;;10.37;9.43;;;;;;;6.30;73.21;100296.28;4879980;28;100369;-80
2021/10/13 05:01:45;;;;;;;10.33;9.33;;;;;;;6.38;73.33;100298.75;4885986;28;96824;-80
2021/10/13 05:04:12;;;;;;;10.13;9.27;;;;;;;6.30;73.17;100300.63;4883255;28;97057;-80
2021/10/13 05:06:37;;;;;;;15.57;10.27;;;;;;;6.29;73.68;100302.38;4865215;28;99790;-79
2021/10/13 05:09:03;;;;;;;9.43;8.50;;;;;;;6.26;73.57;100304.19;4868247;28;100533;-80
2021/10/13 05:11:28;;;;;;;9.93;9.10;;;;;;;6.26;73.07;100310.25;4862992;28;96879;-80
2021/10/13 05:13:54;;;;;;;9.73;8.20;;;;;;;6.28;73.56;100305.00;4885894;28;96780;-79
2021/10/13 05:16:20;;;;;;;9.43;8.17;;;;;;;6.28;73.75;100308.50;4883582;28;98429;-80
2021/10/13 05:18:45;;;;;;;13.17;8.83;;;;;;;6.27;73.61;100314.56;4889193;28;101472;-79
2021/10/13 05:21:11;;;;;;;13.83;8.83;;;;;;;6.30;73.65;100311.06;4878781;28;96706;-79
2021/10/13 05:23:36;;;;;;;11.37;9.37;;;;;;;6.30;73.53;100308.44;4877592;28;97240;-79
2021/10/13 05:26:02;;;;;;;9.13;8.13;;;;;;;6.32;73.44;100319.72;4880648;28;100494;-79
2021/10/13 05:28:27;;;;;;;10.27;9.27;;;;;;;6.30;72.84;100317.13;4863222;28;102584;-79
2021/10/13 05:30:53;;;;;;;8.83;8.03;;;;;;;6.37;72.84;100328.34;4879939;28;97143;-80
2021/10/13 05:33:18;;;;;;;8.93;8.15;;;;;;;6.39;72.86;100331.75;4906605;28;98010;-80
2021/10/13 05:35:44;;;;;;;12.23;8.83;;;;;;;6.50;72.73;100337.66;4897061;28;102205;-79
2021/10/13 05:38:09;;;;;;;11.02;8.88;;;;;;;6.47;72.94;100332.50;4914209;28;100643;-80
2021/10/13 05:40:35;;;;;;;11.48;8.27;;;;;;;6.49;72.68;100337.69;4929459;28;97997;-79
2021/10/13 05:43:00;;;;;;;9.40;8.50;;;;;;;6.55;72.59;100355.84;4904021;28;96827;-79
2021/10/13 05:45:26;;;;;;;11.10;8.10;;;;;;;6.44;73.44;100350.81;4925251;28;97891;-79
2021/10/13 05:47:52;;;;;;;8.43;7.53;;;;;;;6.49;73.28;100361.16;4915586;28;101313;-80
2021/10/13 05:50:17;;;;;;;10.70;8.20;;;;;;;6.49;73.34;100366.38;4924328;28;97506;-79
2021/10/13 05:52:43;;;;;;;9.30;8.33;;;;;;;6.51;73.18;100364.59;4926023;28;97154;-80
2021/10/13 05:55:08;;;;;;;9.00;8.17;;;;;;;6.59;72.96;100375.75;4934264;28;97391;-80
2021/10/13 05:57:36;;;;;;;12.27;7.77;;;;;;;6.58;73.17;100369.69;4928658;28;101585;-80
2021/10/13 06:00:03;;;;;;;8.37;7.77;;;;;;;6.63;73.18;100371.34;4944262;28;97154;-79
2021/10/13 06:02:29;;;;;;;11.63;8.43;;;;;;;6.63;72.76;100377.41;4939226;28;97173;-79
2021/10/13 06:04:55;;;;;;;11.35;9.05;;;;;;;6.61;73.46;100383.56;4907229;28;100907;-80
2021/10/13 06:07:20;;;;;;;9.13;8.23;;;;;;;6.61;73.69;100384.44;4928848;28;98598;-80
2021/10/13 06:09:46;;;;;;;9.57;8.80;;;;;;;6.66;73.71;100385.22;4936218;28;96941;-80
2021/10/13 06:12:11;;;;;;;11.97;9.07;;;;;;;6.72;73.47;100389.44;4927395;28;97200;-80
2021/10/13 06:14:37;;;;;;;9.33;8.50;;;;;;;6.73;73.36;100399.00;4944394;28;97370;-80
2021/10/13 06:17:06;;;;;;;10.83;8.23;;;;;;;6.79;73.30;100402.38;4930720;28;97041;-80
2021/10/13 06:19:32;;;;;;;9.47;8.60;;;;;;;6.79;73.23;100404.97;4948532;28;96723;-81
2021/10/13 06:21:57;;;;;;;8.80;8.10;;;;;;;6.86;72.81;100408.34;4922819;28;96745;-81
2021/10/13 06:24:23;;;;;;;9.17;8.13;;;;;;;6.80;72.79;100416.28;4930307;28;100413;-80
2021/10/13 06:26:48;;;;;;;9.80;8.70;;;;;;;6.85;73.17;100424.03;4907415;28;101436;-79
2021/10/13 06:29:14;;;;;;;10.13;8.83;;;;;;;6.89;73.28;100421.31;4939168;28;97336;-80
2021/10/13 06:31:39;;;;;;;10.93;8.20;;;;;;;6.94;73.00;100423.88;4900837;28;97296;-80
2021/10/13 06:34:05;;;;;;;10.37;9.00;;;;;;;6.97;73.28;100429.88;4900601;28;98028;-80
2021/10/13 06:36:31;;;;;;;8.75;7.82;;;;;;;6.93;73.05;100423.00;4906425;28;101278;-80
2021/10/13 06:38:56;;;;;;;9.07;8.13;;;;;;;7.01;72.78;100431.56;4901681;28;97467;-80
2021/10/13 06:41:25;;;;;;;9.63;7.72;;;;;;;7.03;73.07;100434.16;4904243;28;97311;-80
2021/10/13 06:43:50;;;;;;;9.60;8.60;;;;;;;7.08;72.67;100429.72;4906709;28;96839;-80
2021/10/13 06:46:16;;;;;;;9.60;7.70;;;;;;;7.10;72.79;100437.50;4900268;28;97537;-80
2021/10/13 06:48:41;;;;;;;8.38;6.65;;;;;;;7.09;72.79;100438.41;4893081;28;97273;-80
2021/10/13 06:51:07;;;;;;;9.53;8.80;;;;;;;7.08;72.68;100445.38;4911811;28;97427;-80
2021/10/13 06:53:32;;;;;;;8.73;7.50;;;;;;;7.09;72.85;100439.25;4917332;28;98470;-80
2021/10/13 06:55:59;;;;;;;11.37;8.87;;;;;;;7.13;72.40;100447.91;4898959;28;101343;-79
2021/10/13 06:58:25;;;;;;;10.00;8.17;;;;;;;7.14;72.35;100447.88;4912110;28;96897;-79
2021/10/13 07:00:51;;;;;;;9.75;8.98;;;;;;;7.15;72.63;100451.34;4906550;28;97638;-80
2021/10/13 07:03:17;;;;;;;9.32;8.63;;;;;;;7.18;72.42;100443.44;4887886;28;101917;-78
2021/10/13 07:05:43;;;;;;;9.70;8.70;;;;;;;7.23;72.36;100457.28;4891088;28;101310;-77
2021/10/13 07:08:08;;;;;;;11.63;8.37;;;;;;;7.28;72.34;100463.28;4897962;28;96831;-78
2021/10/13 07:10:34;;;;;;;11.93;9.27;;;;;;;7.31;72.61;100472.81;4914334;28;97207;-77
2021/10/13 07:13:00;;;;;;;10.30;9.15;;;;;;;7.31;72.13;100475.44;4905873;28;101380;-80
2021/10/13 07:15:25;;;;;;;8.93;8.18;;;;;;;7.31;72.65;100471.06;4908359;28;98595;-82
2021/10/13 07:36:58;;;;;;;11.88;8.20;;;;;;;7.64;71.97;100479.16;4991177;23;98279;-82
2021/10/13 07:39:36;;;;;;;6.43;5.10;;;;;;;7.77;71.78;100482.41;4917683;28;96533;-81
2021/10/13 07:42:53;;;;;;;8.02;5.32;;;;;;;7.93;70.87;100487.28;4919250;28;96468;-82
2021/10/13 08:42:57;;;;;;;12.98;5.75;;;;;;;11.95;60.50;100509.97;4892941;28;97187;-91
2021/10/13 08:45:28;;;;;;;9.05;5.97;;;;;;;11.51;61.93;100509.78;4866199;28;98000;-87
2021/10/13 08:47:54;;;;;;;9.00;5.78;;;;;;;11.48;62.11;100512.50;4851222;28;96937;-84
2021/10/13 08:50:20;;;;;;;5.95;4.90;;;;;;;11.29;61.96;100517.56;4846119;28;100229;-87
2021/10/13 08:52:46;;;;;;;8.60;5.22;;;;;;;12.15;60.44;100513.66;4847199;28;100993;-87
2021/10/13 08:55:12;;;;;;;7.40;5.53;;;;;;;12.92;59.04;100519.44;4853258;28;96854;-87
2021/10/13 08:57:39;;;;;;;6.22;5.07;;;;;;;12.60;58.99;100529.47;4838014;28;98069;-87
2021/10/13 09:00:05;;;;;;;8.13;6.30;;;;;;;12.86;58.61;100519.69;4879233;28;98417;-88
2021/10/13 09:02:42;;;;;;;7.05;5.22;;;;;;;12.85;58.05;100524.09;4863944;28;98950;-88
2021/10/13 09:05:15;;;;;;;11.25;5.40;;;;;;;12.85;58.17;100526.72;4858121;28;97386;-86
2021/10/13 09:07:49;;;;;;;5.78;5.15;;;;;;;12.74;59.01;100522.78;4872917;28;97072;-85
2021/10/13 09:10:32;;;;;;;7.13;4.88;;;;;;;12.88;57.90;100521.31;4872524;28;99890;-84
2021/10/13 09:13:00;;;;;;;5.82;5.30;;;;;;;13.95;55.85;100517.72;4845605;28;100904;-86
2021/10/13 09:15:27;;;;;;;7.30;5.57;;;;;;;14.53;54.26;100512.44;4861220;28;97933;-85
2021/10/13 09:18:04;;;;;;;6.25;4.85;;;;;;;14.97;51.70;100509.41;4857918;28;97434;-82
2021/10/13 09:20:32;;;;;;;5.18;4.68;;;;;;;16.17;50.02;100508.56;4877588;28;101293;-84
2021/10/13 09:23:06;;;;;;;6.63;5.70;;;;;;;16.26;49.66;100511.56;4854938;28;101353;-84
2021/10/13 09:25:33;;;;;;;5.88;5.40;;;;;;;15.38;51.46;100519.72;4862253;28;97097;-83
2021/10/13 09:28:00;;;;;;;6.10;5.60;;;;;;;19.08;44.41;100503.47;4866005;28;97303;-86
2021/10/13 09:30:39;;;;;;;5.93;5.43;;;;;;;20.38;41.66;100502.47;4861310;28;97776;-84
2021/10/13 09:33:23;;;;;;;5.55;5.05;;;;;;;19.14;43.32;100506.59;4857155;28;100967;-84
2021/10/13 09:35:55;;;;;;;6.60;5.93;;;;;;;19.54;42.72;100513.69;4855832;28;97039;-86
2021/10/13 09:38:22;;;;;;;9.35;5.90;;;;;;;19.99;41.46;100517.69;4860189;28;96904;-86
2021/10/13 09:40:50;;;;;;;6.72;6.22;;;;;;;19.36;43.21;100519.28;4860075;28;102137;-85
2021/10/13 09:43:38;;;;;;;6.25;5.40;;;;;;;17.68;45.04;100522.88;4855288;28;100936;-84
2021/10/13 09:46:12;;;;;;;7.93;5.60;;;;;;;16.65;47.95;100531.50;4865059;28;97419;-85
2021/10/13 09:48:40;;;;;;;5.20;4.70;;;;;;;15.60;49.78;100536.22;4861565;28;97330;-85
2021/10/13 09:51:17;;;;;;;6.45;5.95;;;;;;;14.74;51.56;100538.75;4841903;28;101350;-85
2021/10/13 09:53:43;;;;;;;6.18;5.60;;;;;;;14.52;52.42;100539.78;4879961;28;100293;-83
2021/10/13 09:56:27;;;;;;;6.45;5.13;;;;;;;14.40;52.47;100543.81;4876728;28;97148;-84
2021/10/13 09:59:10;;;;;;;6.25;5.20;;;;;;;14.17;53.16;100544.88;4889959;28;96928;-77
2021/10/13 10:01:36;;;;;;;6.38;4.47;;;;;;;14.18;53.50;100540.44;4851608;28;101126;-82
2021/10/13 10:04:03;;;;;;;5.53;5.03;;;;;;;14.12;53.96;100548.63;4843429;28;101572;-84
2021/10/13 10:06:29;;;;;;;6.32;4.90;;;;;;;14.15;53.99;100554.63;4875562;28;98058;-81
2021/10/13 10:08:54;;;;;;;6.40;5.90;;;;;;;14.33;53.91;100550.28;4864016;28;97045;-81
2021/10/13 10:11:34;;;;;;;9.13;5.80;;;;;;;14.09;54.29;100552.28;4876877;28;97912;-81
2021/10/13 10:14:04;;;;;;;6.72;5.63;;;;;;;14.31;54.00;100548.66;4843450;28;101313;-82
2021/10/13 10:16:39;;;;;;;7.25;5.78;;;;;;;14.73;52.82;100550.25;4856079;28;97620;-77
2021/10/13 10:19:51;;;;;;;10.32;5.47;;;;;;;14.86;52.41;100548.72;4872722;28;97138;-80
2021/10/13 10:22:21;;;;;;;6.47;4.95;;;;;;;15.02;52.22;100546.22;4870909;28;101874;-86
2021/10/13 10:24:46;;;;;;;5.72;4.20;;;;;;;14.73;52.93;100542.34;4870797;28;101659;-84
2021/10/13 10:27:23;;;;;;;5.10;4.40;;;;;;;14.38;53.08;100555.38;4875325;28;96754;-86
2021/10/13 10:30:07;;;;;;;6.70;4.25;;;;;;;14.23;53.48;100552.50;4890263;28;97394;-84
2021/10/13 10:32:37;;;;;;;4.70;4.13;;;;;;;14.04;54.34;100552.47;4887176;28;101365;-85
2021/10/13 10:35:06;;;;;;;5.95;4.70;;;;;;;14.39;53.19;100562.34;4844308;28;101413;-83
2021/10/13 10:37:50;;;;;;;5.05;4.30;;;;;;;14.35;53.69;100559.00;4891700;28;97851;-77
2021/10/13 10:40:49;;;;;;;4.35;4.05;;;;;;;14.04;54.97;100564.81;4868618;28;97309;-84
2021/10/13 10:43:17;;;;;;;5.22;4.72;;;;;;;13.73;56.03;100574.09;4837654;28;98629;-93
2021/10/13 10:45:54;;;;;;;7.75;4.80;;;;;;;13.59;56.51;100576.44;4873983;28;100280;-85
2021/10/13 10:48:21;;;;;;;6.22;4.90;;;;;;;13.44;57.29;100577.06;4842022;28;96925;-85
2021/10/13 10:50:52;;;;;;;7.15;5.10;;;;;;;13.43;57.39;100584.13;4858354;28;97383;-84
2021/10/13 10:53:29;;;;;;;5.47;4.50;;;;;;;13.19;57.10;100590.41;4871994;28;101531;-84
2021/10/13 10:56:00;;;;;;;7.07;4.45;;;;;;;13.30;57.35;100582.94;4844617;28;101327;-85
2021/10/13 10:58:31;;;;;;;5.90;4.45;;;;;;;13.13;57.48;100573.91;4859819;28;97106;-86
2021/10/13 11:01:11;;;;;;;4.90;4.40;;;;;;;13.12;57.91;100568.72;4868208;28;96964;-87
2021/10/13 11:03:38;;;;;;;4.88;4.43;;;;;;;13.33;57.47;100572.28;4860132;28;102041;-85
2021/10/13 11:06:12;;;;;;;5.43;4.30;;;;;;;13.18;57.40;100570.19;4858239;28;100280;-85
2021/10/13 11:09:03;;;;;;;5.00;4.47;;;;;;;13.14;58.04;100572.13;4860428;28;97100;-86
2021/10/13 11:11:49;;;;;;;4.68;3.90;;;;;;;13.14;58.07;100565.06;4874202;28;96865;-90
2021/10/13 11:14:21;;;;;;;7.03;4.35;;;;;;;13.10;57.54;100565.25;4862479;28;101434;-88
2021/10/13 11:17:08;;;;;;;8.77;4.70;;;;;;;13.38;57.28;100572.94;4870852;28;100229;-90
2021/10/13 11:19:35;;;;;;;6.68;4.35;;;;;;;13.26;57.17;100561.09;4856441;28;97695;-90
2021/10/13 11:22:07;;;;;;;5.57;4.18;;;;;;;13.22;57.15;100562.13;4869561;28;96889;-88
2021/10/13 11:24:35;;;;;;;8.80;4.57;;;;;;;13.14;56.81;100565.06;4849549;28;101218;-89
2021/10/13 11:27:01;;;;;;;9.95;4.50;;;;;;;13.17;57.77;100566.72;4877313;28;97472;-90
2021/10/13 11:29:29;;;;;;;6.00;4.43;;;;;;;13.26;56.74;100565.50;4847555;28;96905;-87
2021/10/13 11:32:05;;;;;;;7.03;4.05;;;;;;;13.39;56.11;100565.88;4842844;28;97082;-86
2021/10/13 11:34:31;;;;;;;5.82;4.22;;;;;;;13.26;56.24;100569.00;4877223;28;99758;-90
2021/10/13 11:36:57;;;;;;;6.90;4.47;;;;;;;13.13;56.64;100573.91;4865142;28;101229;-89
2021/10/13 11:39:32;;;;;;;7.45;4.65;;;;;;;12.76;56.63;100576.28;4865219;28;96725;-89
2021/10/13 11:41:59;;;;;;;6.20;5.28;;;;;;;12.62;57.46;100574.16;4858153;28;97577;-89
2021/10/13 11:44:27;;;;;;;6.22;4.70;;;;;;;12.64;57.63;100574.97;4874852;28;102013;-86
2021/10/13 11:47:06;;;;;;;6.03;4.68;;;;;;;12.79;57.35;100576.16;4859850;28;98391;-87
2021/10/13 11:49:32;;;;;;;5.18;3.90;;;;;;;12.80;57.86;100557.69;4847573;28;96920;-86
2021/10/13 11:52:09;;;;;;;4.80;3.90;;;;;;;12.74;57.44;100568.47;4869995;28;97104;-87
2021/10/13 11:54:35;;;;;;;6.65;4.72;;;;;;;12.57;58.62;100558.56;4874048;28;101681;-84
2021/10/13 11:57:01;;;;;;;5.93;4.20;;;;;;;12.56;58.38;100562.09;4857190;28;101494;-87
2021/10/13 11:59:26;;;;;;;6.60;4.90;;;;;;;12.45;58.49;100562.53;4873026;28;97903;-94
2021/10/13 12:01:52;;;;;;;5.97;5.15;;;;;;;12.42;58.60;100561.75;4846736;28;97380;-86
2021/10/13 12:04:18;;;;;;;6.05;5.45;;;;;;;12.53;58.49;100559.59;4860801;28;101422;-90
2021/10/13 12:06:44;;;;;;;9.23;6.43;;;;;;;12.48;58.78;100564.19;4881070;28;101010;-90
2021/10/13 12:09:10;;;;;;;8.90;6.40;;;;;;;12.39;59.30;100565.41;4848690;28;97322;-92
2021/10/13 12:11:37;;;;;;;10.90;6.60;;;;;;;12.36;58.98;100567.25;4847334;28;97277;-89
2021/10/13 12:14:10;;;;;;;7.10;6.07;;;;;;;12.21;58.38;100560.78;4862968;28;101815;-91
2021/10/13 12:16:35;;;;;;;8.30;6.68;;;;;;;12.16;58.55;100562.75;4856786;28;99882;-88
2021/10/13 12:19:13;;;;;;;8.85;6.22;;;;;;;12.16;57.42;100570.66;4847401;28;96888;-87
2021/10/13 12:21:57;;;;;;;6.30;5.80;;;;;;;12.13;57.81;100574.25;4847504;28;97407;-87
2021/10/13 12:24:22;;;;;;;7.50;6.60;;;;;;;12.15;57.70;100569.78;4856626;28;97998;-82
2021/10/13 12:26:48;;;;;;;7.43;6.72;;;;;;;12.15;57.83;100568.91;4863060;28;101934;-85
2021/10/13 12:29:15;;;;;;;6.25;5.75;;;;;;;12.16;57.73;100570.66;4847086;28;96806;-87
2021/10/13 12:31:42;;;;;;;7.25;6.75;;;;;;;12.16;58.37;100575.91;4863227;28;97247;-88
2021/10/13 12:34:15;;;;;;;6.13;5.50;;;;;;;12.12;58.25;100576.94;4843916;28;101694;-85
2021/10/13 12:36:51;;;;;;;7.82;7.07;;;;;;;12.22;57.92;100565.16;4877906;28;97241;-86
2021/10/13 12:39:25;;;;;;;5.97;5.47;;;;;;;12.34;57.62;100564.69;4859313;28;97368;-86
2021/10/13 12:42:03;;;;;;;8.55;5.80;;;;;;;12.38;57.17;100568.94;4873232;28;96997;-85
2021/10/13 12:44:29;;;;;;;6.38;5.88;;;;;;;12.35;57.76;100565.56;4885943;28;100440;-86
2021/10/13 12:47:05;;;;;;;6.15;5.20;;;;;;;12.38;57.95;100565.44;4860288;28;100644;-86
2021/10/13 12:49:36;;;;;;;6.60;6.00;;;;;;;12.39;59.02;100567.16;4893036;28;97637;-86
2021/10/13 12:52:41;;;;;;;7.25;5.82;;;;;;;12.16;59.06;100591.72;4879768;28;97046;-86